Ana Sayfa
METAR-TAF:

METAR-TAF

Havaalanları :

Olean, New York, Amerika Birleşik Devletleri

Enlem: 42-14-28N, Boylam: 078-22-17W, yükseklik: 651 m

Güncel hava durumu gözlemi

Rapor saat 09:15 UTC de 20 dakika önce yapıldı.
Rüzgar kuzey/kuzeybatıdan 5 kt
Sıcaklık 15°C
Nem 100%
Basınç 1014 hPa
Görüş mesafesi: 8.0 km
4200 ft yükseklikte parçalı çok bulutlu
6500 ft yükseklikte çok bulutlu
hafif yağmur

METAR: KOLE 220915Z AUTO 33005KT 5SM -RA BKN042 OVC065 15/15 A2993 RMK AO2

Saat: 05:35 (09:35 UTC)


TAF: eksik

4.000'den fazla havaalanı için hava durumu gözlemleri ve tahminleri (METAR ve TAF raporları).

Kullanılabilir istasyonlar harita üzerinde sarı ve kırmızı noktalarla gösterilir.

İstasyonun adını görmek için fareyi noktanın üzerinde gezdirin.

Sonrasında hava gözlem ve tahminlerini görmek için tıklayın.

Haritayı değiştirmek için: yaklaştırmak için siyah artı işaretli yeşil düğmeye ve uzaklaştırmak için de eksi işaretli düğmeye hızla tıklayın; bitişik haritalar için yeşil okları kullanın.


METAR-TAF: